EZY42WC EGKK-LIPZ
Flight info
| Callsign | EZY42WC |
|---|---|
| Flight time | N/A |
| Altitude | 35000 |
| Route | BOGNA L612 BENBO UL612 OGULO DCT OKASI DCT OKEKO DCT MOU DCT MADIV DCT MOKIP DCT TUFTA DCT GEVEA DCT ORSUD DCT BIBAN DCT LEGLO/N0449F360 DCT OSKOR DCT NEVNI DCT ADOSA/N0396F190 L612 ALBET |
| Aircraft | A320/M-SDE3FGHIRWY/LB1 |
Departure
| Time | 2026-04-18 11:52 |
|---|---|
| Airport | London Gatwick Airport (EGKK) |
Arrival
| Time | N/A |
|---|---|
| Airport | Venice Marco Polo Airport (LIPZ) |
| Time | Latitude | Longitude | Altitude | Speed | Heading |
|---|---|---|---|---|---|
| 2026-04-18 11:24 | 51.15776 | -0.17938 | 204 ft | 0 kts | 32° |
| 2026-04-18 11:41 | 51.15760 | -0.17954 | 215 ft | 4 kts | 32° |
| 2026-04-18 11:41 | 51.15740 | -0.17975 | 216 ft | 4 kts | 59° |
| 2026-04-18 11:42 | 51.15734 | -0.18006 | 215 ft | 2 kts | 77° |
| 2026-04-18 11:42 | 51.15733 | -0.18035 | 214 ft | 4 kts | 144° |
| 2026-04-18 11:42 | 51.15754 | -0.18048 | 216 ft | 2 kts | 167° |
| 2026-04-18 11:42 | 51.15777 | -0.18056 | 209 ft | 4 kts | 167° |
| 2026-04-18 11:43 | 51.15804 | -0.18065 | 211 ft | 4 kts | 167° |
| 2026-04-18 11:43 | 51.15818 | -0.18070 | 213 ft | 0 kts | 167° |
| 2026-04-18 11:47 | 51.15789 | -0.18060 | 212 ft | 10 kts | 167° |
| 2026-04-18 11:47 | 51.15714 | -0.18030 | 210 ft | 10 kts | 154° |
| 2026-04-18 11:47 | 51.15710 | -0.17877 | 208 ft | 19 kts | 78° |
| 2026-04-18 11:47 | 51.15738 | -0.17674 | 212 ft | 18 kts | 77° |
| 2026-04-18 11:48 | 51.15740 | -0.17515 | 214 ft | 13 kts | 131° |
| 2026-04-18 11:48 | 51.15662 | -0.17477 | 204 ft | 12 kts | 168° |
| 2026-04-18 11:48 | 51.15581 | -0.17450 | 214 ft | 11 kts | 168° |
| 2026-04-18 11:48 | 51.15509 | -0.17426 | 209 ft | 12 kts | 167° |
| 2026-04-18 11:49 | 51.15403 | -0.17388 | 204 ft | 19 kts | 168° |
| 2026-04-18 11:49 | 51.15280 | -0.17346 | 207 ft | 17 kts | 166° |
| 2026-04-18 11:49 | 51.15249 | -0.17205 | 209 ft | 14 kts | 77° |
| 2026-04-18 11:49 | 51.15269 | -0.17057 | 207 ft | 13 kts | 78° |
| 2026-04-18 11:50 | 51.15286 | -0.16937 | 204 ft | 5 kts | 77° |
| 2026-04-18 11:50 | 51.15292 | -0.16897 | 209 ft | 3 kts | 79° |
| 2026-04-18 11:50 | 51.15289 | -0.16846 | 204 ft | 7 kts | 114° |
| 2026-04-18 11:50 | 51.15284 | -0.16837 | 207 ft | 0 kts | 127° |
| 2026-04-18 11:51 | 51.15278 | -0.16830 | 216 ft | 3 kts | 141° |
| 2026-04-18 11:51 | 51.15224 | -0.16805 | 208 ft | 13 kts | 166° |
| 2026-04-18 11:51 | 51.15139 | -0.16795 | 202 ft | 12 kts | 211° |
| 2026-04-18 11:51 | 51.15103 | -0.16935 | 203 ft | 24 kts | 258° |
| 2026-04-18 11:52 | 51.15017 | -0.17570 | 206 ft | 90 kts | 257° |
| 2026-04-18 11:52 | 51.14841 | -0.18847 | 215 ft | 144 kts | 257° |
| 2026-04-18 11:52 | 51.14607 | -0.20492 | 634 ft | 150 kts | 256° |
| 2026-04-18 11:52 | 51.14372 | -0.22140 | 1253 ft | 157 kts | 256° |
| 2026-04-18 11:53 | 51.14107 | -0.23966 | 1550 ft | 180 kts | 256° |
| 2026-04-18 11:53 | 51.13820 | -0.25990 | 1896 ft | 198 kts | 256° |
| 2026-04-18 11:53 | 51.13495 | -0.28275 | 2198 ft | 222 kts | 261° |
| 2026-04-18 11:53 | 51.13172 | -0.30653 | 3114 ft | 217 kts | 260° |
| 2026-04-18 11:54 | 51.12853 | -0.33011 | 3957 ft | 219 kts | 260° |
| 2026-04-18 11:54 | 51.12532 | -0.35390 | 4739 ft | 221 kts | 259° |
| 2026-04-18 11:54 | 51.12202 | -0.37798 | 5497 ft | 224 kts | 259° |
| 2026-04-18 11:54 | 51.11617 | -0.40061 | 6268 ft | 228 kts | 234° |
| 2026-04-18 11:55 | 51.10365 | -0.41635 | 7001 ft | 236 kts | 204° |
| 2026-04-18 11:55 | 51.08722 | -0.41988 | 7733 ft | 244 kts | 179° |
| 2026-04-18 11:55 | 51.07018 | -0.41758 | 8393 ft | 253 kts | 179° |
| 2026-04-18 11:55 | 51.05187 | -0.41518 | 8766 ft | 272 kts | 179° |
| 2026-04-18 11:56 | 51.03277 | -0.41270 | 9454 ft | 278 kts | 180° |
| 2026-04-18 11:56 | 51.01340 | -0.41015 | 10257 ft | 280 kts | 180° |
| 2026-04-18 11:56 | 50.99387 | -0.40761 | 10997 ft | 282 kts | 180° |
| 2026-04-18 11:56 | 50.97422 | -0.40508 | 11723 ft | 285 kts | 181° |
| 2026-04-18 11:57 | 50.95436 | -0.40255 | 12453 ft | 287 kts | 181° |
| 2026-04-18 11:57 | 50.93433 | -0.40003 | 13153 ft | 290 kts | 182° |
| 2026-04-18 11:57 | 50.91406 | -0.39747 | 13811 ft | 296 kts | 182° |
| 2026-04-18 11:57 | 50.89274 | -0.39489 | 13955 ft | 318 kts | 182° |
| 2026-04-18 11:58 | 50.86993 | -0.39219 | 14071 ft | 339 kts | 181° |
| 2026-04-18 11:58 | 50.84578 | -0.38657 | 14195 ft | 364 kts | 172° |
| 2026-04-18 11:58 | 50.82123 | -0.37268 | 14515 ft | 383 kts | 160° |
| 2026-04-18 11:58 | 50.79796 | -0.35087 | 15031 ft | 393 kts | 152° |
| 2026-04-18 11:59 | 50.77509 | -0.32689 | 15600 ft | 396 kts | 152° |
| 2026-04-18 11:59 | 50.75196 | -0.30290 | 16173 ft | 399 kts | 153° |
| 2026-04-18 11:59 | 50.72864 | -0.27888 | 16748 ft | 401 kts | 153° |
| 2026-04-18 11:59 | 50.70547 | -0.25508 | 17312 ft | 404 kts | 153° |
| 2026-04-18 12:00 | 50.68182 | -0.23071 | 17886 ft | 407 kts | 153° |
| 2026-04-18 12:00 | 50.65812 | -0.20603 | 18455 ft | 411 kts | 153° |
| 2026-04-18 12:00 | 50.63422 | -0.18095 | 18927 ft | 414 kts | 152° |
| 2026-04-18 12:00 | 50.61021 | -0.15569 | 19416 ft | 416 kts | 152° |
| 2026-04-18 12:01 | 50.56173 | -0.10484 | 20333 ft | 422 kts | 152° |
| 2026-04-18 12:01 | 50.53724 | -0.07925 | 20776 ft | 424 kts | 152° |
| 2026-04-18 12:01 | 50.51251 | -0.05347 | 21210 ft | 427 kts | 152° |
| 2026-04-18 12:02 | 50.48768 | -0.02765 | 21627 ft | 429 kts | 152° |
| 2026-04-18 12:02 | 50.46271 | -0.00175 | 22036 ft | 432 kts | 152° |
| 2026-04-18 12:02 | 50.43752 | 0.02434 | 22431 ft | 434 kts | 152° |
| 2026-04-18 12:02 | 50.41221 | 0.05054 | 22802 ft | 437 kts | 152° |
| 2026-04-18 12:03 | 50.38675 | 0.07687 | 23170 ft | 440 kts | 152° |
| 2026-04-18 12:03 | 50.36115 | 0.10332 | 23535 ft | 442 kts | 152° |
| 2026-04-18 12:03 | 50.33537 | 0.12997 | 23874 ft | 445 kts | 152° |
| 2026-04-18 12:03 | 50.30949 | 0.15669 | 24194 ft | 447 kts | 152° |
| 2026-04-18 12:04 | 50.28343 | 0.18358 | 24506 ft | 449 kts | 152° |
| 2026-04-18 12:04 | 50.25770 | 0.21010 | 24807 ft | 450 kts | 152° |
| 2026-04-18 12:04 | 50.23144 | 0.23711 | 25109 ft | 452 kts | 152° |
| 2026-04-18 12:04 | 50.20514 | 0.26410 | 25397 ft | 454 kts | 153° |
| 2026-04-18 12:05 | 50.17868 | 0.29121 | 25659 ft | 455 kts | 153° |
| 2026-04-18 12:05 | 50.15215 | 0.31848 | 25942 ft | 457 kts | 153° |
| 2026-04-18 12:05 | 50.12555 | 0.34583 | 26214 ft | 459 kts | 153° |
| 2026-04-18 12:05 | 50.09888 | 0.37322 | 26478 ft | 460 kts | 153° |
| 2026-04-18 12:06 | 50.07207 | 0.40066 | 26743 ft | 462 kts | 153° |
| 2026-04-18 12:06 | 50.04522 | 0.42810 | 26996 ft | 463 kts | 153° |
| 2026-04-18 12:06 | 50.01827 | 0.45565 | 27227 ft | 465 kts | 154° |
| 2026-04-18 12:06 | 49.99118 | 0.48336 | 27452 ft | 466 kts | 154° |
| 2026-04-18 12:07 | 49.96405 | 0.51108 | 27630 ft | 467 kts | 154° |
| 2026-04-18 12:07 | 49.93682 | 0.53881 | 27847 ft | 469 kts | 154° |
| 2026-04-18 12:07 | 49.90950 | 0.56656 | 28079 ft | 469 kts | 154° |
| 2026-04-18 12:07 | 49.88220 | 0.59423 | 28389 ft | 468 kts | 154° |
| 2026-04-18 12:08 | 49.85513 | 0.62241 | 28695 ft | 471 kts | 151° |
| 2026-04-18 12:08 | 49.82943 | 0.65430 | 29006 ft | 473 kts | 148° |
| 2026-04-18 12:08 | 49.80394 | 0.68647 | 29316 ft | 473 kts | 149° |
| 2026-04-18 12:08 | 49.77880 | 0.71818 | 29620 ft | 472 kts | 149° |
| 2026-04-18 12:09 | 49.75337 | 0.75021 | 29931 ft | 471 kts | 149° |
| 2026-04-18 12:09 | 49.72796 | 0.78214 | 30222 ft | 470 kts | 149° |
| 2026-04-18 12:09 | 49.70256 | 0.81393 | 30519 ft | 469 kts | 149° |
| 2026-04-18 12:09 | 49.67721 | 0.84557 | 30783 ft | 468 kts | 149° |
| 2026-04-18 12:10 | 49.65189 | 0.87713 | 31045 ft | 468 kts | 149° |
| 2026-04-18 12:10 | 49.62659 | 0.90865 | 31272 ft | 467 kts | 149° |
| 2026-04-18 12:10 | 49.60129 | 0.94018 | 31508 ft | 467 kts | 149° |
| 2026-04-18 12:10 | 49.57603 | 0.97162 | 31756 ft | 467 kts | 149° |
| 2026-04-18 12:11 | 49.55072 | 1.00307 | 32005 ft | 467 kts | 149° |
| 2026-04-18 12:11 | 49.52548 | 1.03439 | 32263 ft | 466 kts | 149° |
| 2026-04-18 12:11 | 49.50022 | 1.06574 | 32473 ft | 466 kts | 149° |
| 2026-04-18 12:11 | 49.47496 | 1.09704 | 32719 ft | 466 kts | 149° |
| 2026-04-18 12:12 | 49.44967 | 1.12829 | 32971 ft | 466 kts | 149° |
| 2026-04-18 12:12 | 49.42441 | 1.15942 | 33221 ft | 466 kts | 149° |
| 2026-04-18 12:12 | 49.39913 | 1.19057 | 33456 ft | 466 kts | 149° |
| 2026-04-18 12:12 | 49.38236 | 1.21125 | 33621 ft | 466 kts | 149° |
| 2026-04-18 12:13 | 49.35714 | 1.24233 | 33878 ft | 465 kts | 149° |
| 2026-04-18 12:13 | 49.33190 | 1.27341 | 34135 ft | 465 kts | 150° |
| 2026-04-18 12:13 | 49.30669 | 1.30438 | 34365 ft | 464 kts | 150° |
| 2026-04-18 12:13 | 49.28149 | 1.33530 | 34509 ft | 464 kts | 149° |
| 2026-04-18 12:14 | 49.25633 | 1.36611 | 34763 ft | 463 kts | 149° |
| 2026-04-18 12:14 | 49.22308 | 1.40672 | 35061 ft | 461 kts | 149° |
| 2026-04-18 12:14 | 49.20609 | 1.42739 | 35172 ft | 461 kts | 149° |
| 2026-04-18 12:15 | 49.15569 | 1.48866 | 35239 ft | 464 kts | 149° |
| 2026-04-18 12:15 | 49.10519 | 1.54995 | 35239 ft | 464 kts | 149° |
| 2026-04-18 12:16 | 49.05494 | 1.61099 | 35216 ft | 464 kts | 149° |
| 2026-04-18 12:16 | 49.00444 | 1.67205 | 35228 ft | 463 kts | 149° |
| 2026-04-18 12:17 | 48.95395 | 1.73295 | 35223 ft | 463 kts | 149° |
| 2026-04-18 12:17 | 48.90345 | 1.79359 | 35203 ft | 463 kts | 149° |
| 2026-04-18 12:18 | 48.85290 | 1.85412 | 35208 ft | 463 kts | 149° |
| 2026-04-18 12:18 | 48.80224 | 1.91459 | 35188 ft | 463 kts | 149° |
| 2026-04-18 12:19 | 48.75157 | 1.97492 | 35187 ft | 463 kts | 149° |
| 2026-04-18 12:19 | 48.70085 | 2.03527 | 35190 ft | 464 kts | 149° |
| 2026-04-18 12:20 | 48.65010 | 2.09556 | 35196 ft | 464 kts | 149° |
| 2026-04-18 12:20 | 48.59924 | 2.15571 | 35182 ft | 464 kts | 149° |
| 2026-04-18 12:21 | 48.55018 | 2.21976 | 35184 ft | 471 kts | 141° |
| 2026-04-18 12:21 | 48.50440 | 2.28953 | 35182 ft | 471 kts | 141° |
| 2026-04-18 12:22 | 48.45822 | 2.35972 | 35184 ft | 471 kts | 141° |
| 2026-04-18 12:22 | 48.41194 | 2.42966 | 35161 ft | 471 kts | 141° |
| 2026-04-18 12:23 | 48.36562 | 2.49927 | 35162 ft | 471 kts | 141° |
| 2026-04-18 12:23 | 48.31925 | 2.56881 | 35173 ft | 471 kts | 141° |
| 2026-04-18 12:24 | 48.26969 | 2.63102 | 35172 ft | 459 kts | 155° |
| 2026-04-18 12:24 | 48.21312 | 2.67288 | 35180 ft | 453 kts | 161° |
| 2026-04-18 12:25 | 48.15685 | 2.71612 | 35161 ft | 456 kts | 157° |
| 2026-04-18 12:25 | 48.10133 | 2.76239 | 35178 ft | 457 kts | 157° |
| 2026-04-18 12:26 | 48.04442 | 2.80299 | 35183 ft | 452 kts | 162° |
| 2026-04-18 12:26 | 47.98663 | 2.83978 | 35187 ft | 451 kts | 163° |
| 2026-04-18 12:27 | 47.92908 | 2.87602 | 35175 ft | 452 kts | 163° |
| 2026-04-18 12:27 | 47.87121 | 2.91253 | 35184 ft | 452 kts | 163° |
| 2026-04-18 12:28 | 47.81332 | 2.94923 | 35186 ft | 452 kts | 163° |
| 2026-04-18 12:28 | 47.75547 | 2.98578 | 35150 ft | 452 kts | 162° |
| 2026-04-18 12:29 | 47.69754 | 3.02214 | 35162 ft | 452 kts | 163° |
| 2026-04-18 12:29 | 47.63954 | 3.05853 | 35172 ft | 453 kts | 162° |
| 2026-04-18 12:30 | 47.58148 | 3.09488 | 35179 ft | 453 kts | 163° |
| 2026-04-18 12:30 | 47.52343 | 3.13114 | 35167 ft | 453 kts | 162° |
| 2026-04-18 12:31 | 47.46568 | 3.16716 | 35176 ft | 453 kts | 163° |
| 2026-04-18 12:31 | 47.40756 | 3.20323 | 35180 ft | 453 kts | 163° |
| 2026-04-18 12:32 | 47.34932 | 3.23917 | 35181 ft | 453 kts | 163° |
| 2026-04-18 12:32 | 47.29104 | 3.27519 | 35164 ft | 454 kts | 162° |
| 2026-04-18 12:33 | 47.23281 | 3.31121 | 35175 ft | 454 kts | 162° |
| 2026-04-18 12:33 | 47.17442 | 3.34713 | 35173 ft | 455 kts | 163° |
| 2026-04-18 12:34 | 47.11593 | 3.38296 | 35167 ft | 456 kts | 162° |
| 2026-04-18 12:34 | 47.05726 | 3.41884 | 35172 ft | 456 kts | 162° |
| 2026-04-18 12:35 | 46.99901 | 3.45439 | 35178 ft | 456 kts | 162° |
| 2026-04-18 12:35 | 46.94039 | 3.49013 | 35184 ft | 456 kts | 162° |
| 2026-04-18 12:36 | 46.88174 | 3.52583 | 35170 ft | 457 kts | 162° |
| 2026-04-18 12:36 | 46.82300 | 3.56145 | 35179 ft | 457 kts | 162° |
| 2026-04-18 12:37 | 46.76489 | 3.59960 | 35190 ft | 463 kts | 153° |
| 2026-04-18 12:37 | 46.73882 | 3.62744 | 35191 ft | 469 kts | 142° |
| 2026-04-18 12:37 | 46.71643 | 3.66255 | 35193 ft | 475 kts | 130° |
| 2026-04-18 12:37 | 46.69892 | 3.70357 | 35191 ft | 480 kts | 118° |
| 2026-04-18 12:38 | 46.68704 | 3.74923 | 35186 ft | 485 kts | 107° |
| 2026-04-18 12:38 | 46.67099 | 3.84477 | 35186 ft | 486 kts | 106° |
| 2026-04-18 12:39 | 46.65455 | 3.94016 | 35189 ft | 486 kts | 106° |
| 2026-04-18 12:39 | 46.63791 | 4.03560 | 35188 ft | 486 kts | 106° |
| 2026-04-18 12:40 | 46.62129 | 4.13099 | 35187 ft | 486 kts | 106° |
| 2026-04-18 12:40 | 46.60480 | 4.22573 | 35194 ft | 486 kts | 106° |
| 2026-04-18 12:41 | 46.58808 | 4.32109 | 35203 ft | 486 kts | 106° |
| 2026-04-18 12:41 | 46.57118 | 4.41640 | 35205 ft | 487 kts | 106° |
| 2026-04-18 12:42 | 46.55424 | 4.51158 | 35210 ft | 486 kts | 106° |
| 2026-04-18 12:42 | 46.53727 | 4.60669 | 35209 ft | 486 kts | 106° |
| 2026-04-18 12:43 | 46.52026 | 4.70182 | 35213 ft | 486 kts | 106° |
| 2026-04-18 12:43 | 46.50312 | 4.79681 | 35211 ft | 486 kts | 107° |
| 2026-04-18 12:44 | 46.48588 | 4.89167 | 35193 ft | 486 kts | 106° |
| 2026-04-18 12:44 | 46.46861 | 4.98637 | 35194 ft | 485 kts | 107° |
| 2026-04-18 12:45 | 46.45125 | 5.08089 | 35191 ft | 485 kts | 106° |
| 2026-04-18 12:45 | 46.43398 | 5.17488 | 35197 ft | 485 kts | 106° |
| 2026-04-18 12:46 | 46.41658 | 5.26926 | 35195 ft | 485 kts | 106° |
| 2026-04-18 12:46 | 46.39910 | 5.36351 | 35198 ft | 484 kts | 106° |
| 2026-04-18 12:47 | 46.38154 | 5.45758 | 35198 ft | 483 kts | 107° |
| 2026-04-18 12:47 | 46.36402 | 5.55149 | 35194 ft | 483 kts | 107° |
| 2026-04-18 12:48 | 46.34651 | 5.64534 | 35187 ft | 483 kts | 106° |
| 2026-04-18 12:48 | 46.32901 | 5.73844 | 35190 ft | 483 kts | 106° |
| 2026-04-18 12:49 | 46.31132 | 5.83214 | 35191 ft | 483 kts | 106° |
| 2026-04-18 12:49 | 46.29358 | 5.92574 | 35183 ft | 482 kts | 107° |
| 2026-04-18 12:50 | 46.27570 | 6.01919 | 35179 ft | 482 kts | 107° |
| 2026-04-18 12:50 | 46.25774 | 6.11247 | 35190 ft | 482 kts | 107° |
| 2026-04-18 12:51 | 46.23453 | 6.20284 | 35174 ft | 480 kts | 113° |
| 2026-04-18 12:51 | 46.20964 | 6.29235 | 35173 ft | 480 kts | 113° |
| 2026-04-18 12:52 | 46.18471 | 6.38173 | 35173 ft | 480 kts | 113° |
| 2026-04-18 12:52 | 46.15975 | 6.47093 | 35170 ft | 479 kts | 113° |
| 2026-04-18 12:53 | 46.13490 | 6.55952 | 35184 ft | 480 kts | 113° |
| 2026-04-18 12:53 | 46.10980 | 6.64861 | 35183 ft | 480 kts | 113° |
| 2026-04-18 12:54 | 46.08460 | 6.73764 | 35188 ft | 480 kts | 113° |
| 2026-04-18 12:54 | 46.05944 | 6.82670 | 35196 ft | 480 kts | 113° |
| 2026-04-18 12:55 | 46.03421 | 6.91553 | 35205 ft | 479 kts | 113° |
| 2026-04-18 12:55 | 46.00888 | 7.00413 | 35198 ft | 479 kts | 113° |
| 2026-04-18 12:56 | 45.98346 | 7.09248 | 35186 ft | 479 kts | 113° |
| 2026-04-18 12:56 | 45.95928 | 7.18179 | 35168 ft | 479 kts | 106° |
| 2026-04-18 12:57 | 45.94677 | 7.27515 | 35163 ft | 479 kts | 99° |
| 2026-04-18 12:57 | 45.93555 | 7.36949 | 35153 ft | 479 kts | 100° |
| 2026-04-18 12:58 | 45.92404 | 7.46385 | 35145 ft | 479 kts | 100° |
| 2026-04-18 12:58 | 45.91338 | 7.55822 | 35198 ft | 479 kts | 99° |
| 2026-04-18 12:59 | 45.90337 | 7.65276 | 35196 ft | 479 kts | 98° |
| 2026-04-18 12:59 | 45.89328 | 7.74729 | 35198 ft | 479 kts | 99° |
| 2026-04-18 13:00 | 45.88280 | 7.84159 | 35193 ft | 479 kts | 99° |
| 2026-04-18 13:00 | 45.87212 | 7.93586 | 35176 ft | 478 kts | 99° |
| 2026-04-18 13:01 | 45.86147 | 8.03006 | 35178 ft | 478 kts | 99° |
| 2026-04-18 13:01 | 45.85073 | 8.12421 | 35165 ft | 478 kts | 99° |
| 2026-04-18 13:02 | 45.83995 | 8.21825 | 35149 ft | 478 kts | 99° |
| 2026-04-18 13:02 | 45.82913 | 8.31234 | 35145 ft | 478 kts | 99° |
| 2026-04-18 13:03 | 45.81825 | 8.40621 | 35139 ft | 477 kts | 99° |
| 2026-04-18 13:03 | 45.80174 | 8.54659 | 35127 ft | 476 kts | 99° |
| 2026-04-18 13:04 | 45.79060 | 8.64018 | 35125 ft | 476 kts | 99° |
| 2026-04-18 13:04 | 45.77955 | 8.73309 | 35121 ft | 476 kts | 99° |
| 2026-04-18 13:05 | 45.76829 | 8.82660 | 35122 ft | 476 kts | 99° |
| 2026-04-18 13:05 | 45.75688 | 8.92010 | 35124 ft | 477 kts | 99° |
| 2026-04-18 13:06 | 45.74535 | 9.01362 | 35126 ft | 477 kts | 99° |
| 2026-04-18 13:06 | 45.73387 | 9.10711 | 35134 ft | 477 kts | 99° |
| 2026-04-18 13:07 | 45.72428 | 9.18485 | 35133 ft | 477 kts | 100° |
| 2026-04-18 13:07 | 45.71267 | 9.27824 | 35131 ft | 477 kts | 100° |
| 2026-04-18 13:08 | 45.70095 | 9.37175 | 35132 ft | 477 kts | 100° |
| 2026-04-18 13:08 | 45.68916 | 9.46513 | 35151 ft | 477 kts | 100° |
| 2026-04-18 13:09 | 45.67729 | 9.55842 | 35149 ft | 477 kts | 100° |
| 2026-04-18 13:09 | 45.66528 | 9.65182 | 35146 ft | 477 kts | 100° |
| 2026-04-18 13:10 | 45.65341 | 9.74446 | 35143 ft | 477 kts | 99° |
| 2026-04-18 13:10 | 45.64997 | 9.83875 | 35146 ft | 475 kts | 89° |
| 2026-04-18 13:11 | 45.64981 | 9.93325 | 35146 ft | 475 kts | 89° |
| 2026-04-18 13:11 | 45.64943 | 10.02766 | 35148 ft | 475 kts | 89° |
| 2026-04-18 13:12 | 45.64895 | 10.12210 | 35149 ft | 475 kts | 89° |
| 2026-04-18 13:12 | 45.64866 | 10.21653 | 35132 ft | 475 kts | 89° |
| 2026-04-18 13:13 | 45.64857 | 10.26364 | 34879 ft | 473 kts | 89° |
| 2026-04-18 13:13 | 45.64846 | 10.31056 | 34135 ft | 473 kts | 89° |
| 2026-04-18 13:13 | 45.64833 | 10.35759 | 33263 ft | 474 kts | 89° |
| 2026-04-18 13:13 | 45.64818 | 10.40474 | 32372 ft | 475 kts | 89° |
| 2026-04-18 13:14 | 45.64801 | 10.45175 | 31707 ft | 471 kts | 89° |
| 2026-04-18 13:14 | 45.64785 | 10.49576 | 31133 ft | 467 kts | 89° |
| 2026-04-18 13:14 | 45.64768 | 10.54205 | 30549 ft | 463 kts | 89° |
| 2026-04-18 13:14 | 45.64751 | 10.58784 | 29939 ft | 459 kts | 89° |
| 2026-04-18 13:15 | 45.64729 | 10.63327 | 29310 ft | 455 kts | 89° |
| 2026-04-18 13:15 | 45.64702 | 10.67830 | 28688 ft | 451 kts | 89° |
| 2026-04-18 13:15 | 45.64672 | 10.72282 | 28100 ft | 446 kts | 89° |
| 2026-04-18 13:15 | 45.64640 | 10.76631 | 27559 ft | 442 kts | 89° |
| 2026-04-18 13:16 | 45.64511 | 10.81002 | 27004 ft | 439 kts | 97° |
| 2026-04-18 13:16 | 45.63717 | 10.85178 | 26471 ft | 436 kts | 112° |
| 2026-04-18 13:16 | 45.62503 | 10.89122 | 25913 ft | 433 kts | 113° |
| 2026-04-18 13:16 | 45.61272 | 10.93026 | 25367 ft | 429 kts | 114° |
| 2026-04-18 13:17 | 45.60035 | 10.96889 | 24853 ft | 426 kts | 114° |
| 2026-04-18 13:17 | 45.58804 | 11.00718 | 24362 ft | 423 kts | 113° |
| 2026-04-18 13:17 | 45.57582 | 11.04520 | 23865 ft | 420 kts | 113° |
| 2026-04-18 13:17 | 45.56367 | 11.08304 | 23303 ft | 417 kts | 113° |
| 2026-04-18 13:18 | 45.55168 | 11.12052 | 22772 ft | 414 kts | 113° |
| 2026-04-18 13:18 | 45.53976 | 11.15776 | 22259 ft | 410 kts | 113° |
| 2026-04-18 13:18 | 45.52794 | 11.19464 | 21771 ft | 407 kts | 113° |
| 2026-04-18 13:18 | 45.51621 | 11.23124 | 21291 ft | 404 kts | 113° |
| 2026-04-18 13:19 | 45.50458 | 11.26758 | 20825 ft | 401 kts | 113° |
| 2026-04-18 13:19 | 45.49301 | 11.30362 | 20360 ft | 398 kts | 114° |
| 2026-04-18 13:19 | 45.48149 | 11.33936 | 19905 ft | 395 kts | 114° |
| 2026-04-18 13:19 | 45.47004 | 11.37487 | 19437 ft | 393 kts | 114° |
| 2026-04-18 13:20 | 45.45862 | 11.41011 | 18989 ft | 390 kts | 114° |
| 2026-04-18 13:20 | 45.44729 | 11.44506 | 18561 ft | 387 kts | 114° |
| 2026-04-18 13:20 | 45.43622 | 11.47936 | 18062 ft | 385 kts | 114° |
| 2026-04-18 13:20 | 45.42346 | 11.51265 | 17610 ft | 382 kts | 125° |
| 2026-04-18 13:21 | 45.40647 | 11.54145 | 17160 ft | 379 kts | 132° |